LFPN 240400Z AUTO 28007KT 9999 FEW009 BKN130 10/10 Q1028

ElémentsDécodage
LFPN Station météo située sur l'aérodrome de TOUSSUS-LE-NOBLE
240400Z émis le 24 du mois à 04h00 UTC
AUTO Bulletin édité par un automate
28007KT vent du 280°, 07 noeuds
9999 visibilité horizontale supérieure à 10 Km
FEW009 nuages rares (1/8 à 2/8) à 900 pieds
BKN130 nuages morcelés (5/8 à 7/8) à 13000 pieds
10/10 température 10°C, point de rosée 10°C
 soit une humidité relative de 100%
Q1028 la pression au niveau de la mer (QNH) est de 1028 hPa